sensor_id;sensor_type;location;lat;lon;timestamp;P1;durP1;ratioP1;P2;durP2;ratioP2
49366;SDS011;35245;52.026;8.540;2023-03-04T00:01:38;19.20;;;5.03;;
49366;SDS011;35245;52.026;8.540;2023-03-04T00:04:06;19.58;;;4.57;;
49366;SDS011;35245;52.026;8.540;2023-03-04T00:06:33;17.10;;;4.80;;
49366;SDS011;35245;52.026;8.540;2023-03-04T00:09:00;23.88;;;5.40;;
49366;SDS011;35245;52.026;8.540;2023-03-04T00:11:28;31.45;;;5.70;;
49366;SDS011;35245;52.026;8.540;2023-03-04T00:13:55;23.15;;;4.93;;
49366;SDS011;35245;52.026;8.540;2023-03-04T00:16:22;25.27;;;4.65;;
49366;SDS011;35245;52.026;8.540;2023-03-04T00:18:51;22.60;;;4.28;;
49366;SDS011;35245;52.026;8.540;2023-03-04T00:21:19;30.25;;;4.57;;
49366;SDS011;35245;52.026;8.540;2023-03-04T00:23:46;25.25;;;4.75;;
49366;SDS011;35245;52.026;8.540;2023-03-04T00:26:14;23.48;;;4.70;;
49366;SDS011;35245;52.026;8.540;2023-03-04T00:28:41;27.25;;;4.35;;
49366;SDS011;35245;52.026;8.540;2023-03-04T00:31:08;23.00;;;5.13;;
49366;SDS011;35245;52.026;8.540;2023-03-04T00:33:36;22.02;;;4.13;;
49366;SDS011;35245;52.026;8.540;2023-03-04T00:36:04;23.35;;;4.95;;
49366;SDS011;35245;52.026;8.540;2023-03-04T00:38:33;22.30;;;4.80;;
49366;SDS011;35245;52.026;8.540;2023-03-04T00:41:00;18.92;;;4.28;;
49366;SDS011;35245;52.026;8.540;2023-03-04T00:43:27;21.45;;;4.40;;
49366;SDS011;35245;52.026;8.540;2023-03-04T00:45:55;24.98;;;4.40;;
49366;SDS011;35245;52.026;8.540;2023-03-04T00:48:22;23.05;;;4.47;;
49366;SDS011;35245;52.026;8.540;2023-03-04T00:50:49;20.25;;;3.95;;
49366;SDS011;35245;52.026;8.540;2023-03-04T00:53:18;21.30;;;4.72;;
49366;SDS011;35245;52.026;8.540;2023-03-04T00:55:46;23.17;;;5.32;;
49366;SDS011;35245;52.026;8.540;2023-03-04T00:58:13;23.55;;;4.72;;
49366;SDS011;35245;52.026;8.540;2023-03-04T01:00:40;24.75;;;4.82;;
49366;SDS011;35245;52.026;8.540;2023-03-04T01:03:07;23.13;;;3.75;;
49366;SDS011;35245;52.026;8.540;2023-03-04T01:05:34;30.67;;;4.65;;
49366;SDS011;35245;52.026;8.540;2023-03-04T01:08:01;16.17;;;4.40;;
49366;SDS011;35245;52.026;8.540;2023-03-04T01:10:29;16.30;;;3.60;;
49366;SDS011;35245;52.026;8.540;2023-03-04T01:12:58;21.42;;;4.18;;
49366;SDS011;35245;52.026;8.540;2023-03-04T01:15:25;28.02;;;4.00;;
49366;SDS011;35245;52.026;8.540;2023-03-04T01:17:52;30.52;;;5.15;;
49366;SDS011;35245;52.026;8.540;2023-03-04T01:20:19;27.77;;;4.53;;
49366;SDS011;35245;52.026;8.540;2023-03-04T01:22:46;15.82;;;4.80;;
49366;SDS011;35245;52.026;8.540;2023-03-04T01:25:13;25.25;;;4.35;;
49366;SDS011;35245;52.026;8.540;2023-03-04T01:27:40;24.02;;;4.10;;
49366;SDS011;35245;52.026;8.540;2023-03-04T01:30:09;23.13;;;5.07;;
49366;SDS011;35245;52.026;8.540;2023-03-04T01:32:37;19.30;;;4.18;;
49366;SDS011;35245;52.026;8.540;2023-03-04T01:35:04;17.40;;;3.35;;
49366;SDS011;35245;52.026;8.540;2023-03-04T01:37:31;21.95;;;4.40;;
49366;SDS011;35245;52.026;8.540;2023-03-04T01:39:58;19.45;;;4.50;;
49366;SDS011;35245;52.026;8.540;2023-03-04T01:42:25;18.00;;;3.97;;
49366;SDS011;35245;52.026;8.540;2023-03-04T01:44:55;24.85;;;4.40;;
49366;SDS011;35245;52.026;8.540;2023-03-04T01:47:23;20.13;;;4.35;;
49366;SDS011;35245;52.026;8.540;2023-03-04T01:49:54;21.38;;;4.38;;
49366;SDS011;35245;52.026;8.540;2023-03-04T01:52:22;21.52;;;3.80;;
49366;SDS011;35245;52.026;8.540;2023-03-04T01:54:50;26.08;;;4.70;;
49366;SDS011;35245;52.026;8.540;2023-03-04T01:57:17;19.33;;;3.90;;
49366;SDS011;35245;52.026;8.540;2023-03-04T01:59:46;15.95;;;3.22;;
49366;SDS011;35245;52.026;8.540;2023-03-04T02:02:13;16.83;;;3.33;;
49366;SDS011;35245;52.026;8.540;2023-03-04T02:04:41;19.92;;;4.05;;
49366;SDS011;35245;52.026;8.540;2023-03-04T02:07:08;28.75;;;4.47;;
49366;SDS011;35245;52.026;8.540;2023-03-04T02:09:35;17.00;;;5.20;;
49366;SDS011;35245;52.026;8.540;2023-03-04T02:12:02;30.27;;;4.50;;
49366;SDS011;35245;52.026;8.540;2023-03-04T02:14:30;16.30;;;4.13;;
49366;SDS011;35245;52.026;8.540;2023-03-04T02:16:57;25.30;;;3.80;;
49366;SDS011;35245;52.026;8.540;2023-03-04T02:19:28;26.23;;;5.03;;
49366;SDS011;35245;52.026;8.540;2023-03-04T02:22:04;21.23;;;4.20;;
49366;SDS011;35245;52.026;8.540;2023-03-04T02:24:32;25.17;;;4.53;;
49366;SDS011;35245;52.026;8.540;2023-03-04T02:27:02;21.63;;;3.90;;
49366;SDS011;35245;52.026;8.540;2023-03-04T02:29:29;17.20;;;4.03;;
49366;SDS011;35245;52.026;8.540;2023-03-04T02:31:56;29.58;;;4.93;;
49366;SDS011;35245;52.026;8.540;2023-03-04T02:34:24;16.10;;;4.65;;
49366;SDS011;35245;52.026;8.540;2023-03-04T02:36:54;14.17;;;3.40;;
49366;SDS011;35245;52.026;8.540;2023-03-04T02:39:22;25.98;;;5.25;;
49366;SDS011;35245;52.026;8.540;2023-03-04T02:41:54;17.65;;;4.60;;
49366;SDS011;35245;52.026;8.540;2023-03-04T02:44:23;22.83;;;4.65;;
49366;SDS011;35245;52.026;8.540;2023-03-04T02:46:50;18.75;;;4.35;;
49366;SDS011;35245;52.026;8.540;2023-03-04T02:49:18;24.20;;;4.82;;
49366;SDS011;35245;52.026;8.540;2023-03-04T02:51:48;23.92;;;4.57;;
49366;SDS011;35245;52.026;8.540;2023-03-04T02:54:17;15.20;;;3.57;;
49366;SDS011;35245;52.026;8.540;2023-03-04T02:56:46;19.60;;;4.40;;
49366;SDS011;35245;52.026;8.540;2023-03-04T02:59:13;20.25;;;4.35;;
49366;SDS011;35245;52.026;8.540;2023-03-04T03:01:42;20.75;;;4.43;;
49366;SDS011;35245;52.026;8.540;2023-03-04T03:04:09;17.05;;;3.67;;
49366;SDS011;35245;52.026;8.540;2023-03-04T03:06:36;19.13;;;3.42;;
49366;SDS011;35245;52.026;8.540;2023-03-04T03:09:03;22.60;;;3.70;;
49366;SDS011;35245;52.026;8.540;2023-03-04T03:11:30;16.02;;;3.75;;
49366;SDS011;35245;52.026;8.540;2023-03-04T03:13:57;15.35;;;3.20;;
49366;SDS011;35245;52.026;8.540;2023-03-04T03:16:24;16.38;;;4.07;;
49366;SDS011;35245;52.026;8.540;2023-03-04T03:18:53;17.80;;;3.33;;
49366;SDS011;35245;52.026;8.540;2023-03-04T03:21:19;22.00;;;3.88;;
49366;SDS011;35245;52.026;8.540;2023-03-04T03:23:46;16.38;;;3.42;;
49366;SDS011;35245;52.026;8.540;2023-03-04T03:26:13;17.30;;;3.67;;
49366;SDS011;35245;52.026;8.540;2023-03-04T03:28:40;14.98;;;3.47;;
49366;SDS011;35245;52.026;8.540;2023-03-04T03:31:07;17.20;;;2.90;;
49366;SDS011;35245;52.026;8.540;2023-03-04T03:33:34;21.52;;;3.75;;
49366;SDS011;35245;52.026;8.540;2023-03-04T03:36:03;15.27;;;3.00;;
49366;SDS011;35245;52.026;8.540;2023-03-04T03:38:30;14.48;;;2.95;;
49366;SDS011;35245;52.026;8.540;2023-03-04T03:40:57;12.35;;;3.30;;
49366;SDS011;35245;52.026;8.540;2023-03-04T03:43:24;18.92;;;3.70;;
49366;SDS011;35245;52.026;8.540;2023-03-04T03:45:51;19.02;;;3.63;;
49366;SDS011;35245;52.026;8.540;2023-03-04T03:48:18;16.52;;;3.42;;
49366;SDS011;35245;52.026;8.540;2023-03-04T03:50:45;15.15;;;3.00;;
49366;SDS011;35245;52.026;8.540;2023-03-04T03:53:13;20.95;;;4.97;;
49366;SDS011;35245;52.026;8.540;2023-03-04T03:55:40;19.27;;;3.60;;
49366;SDS011;35245;52.026;8.540;2023-03-04T03:58:07;13.10;;;2.83;;
49366;SDS011;35245;52.026;8.540;2023-03-04T04:00:34;12.93;;;2.63;;
49366;SDS011;35245;52.026;8.540;2023-03-04T04:03:01;11.80;;;2.60;;
49366;SDS011;35245;52.026;8.540;2023-03-04T04:05:28;20.77;;;3.20;;
49366;SDS011;35245;52.026;8.540;2023-03-04T04:07:55;14.73;;;3.35;;
49366;SDS011;35245;52.026;8.540;2023-03-04T04:10:23;16.00;;;3.60;;
49366;SDS011;35245;52.026;8.540;2023-03-04T04:12:50;11.27;;;3.10;;
49366;SDS011;35245;52.026;8.540;2023-03-04T04:15:17;15.77;;;3.38;;
49366;SDS011;35245;52.026;8.540;2023-03-04T04:17:44;16.58;;;3.55;;
49366;SDS011;35245;52.026;8.540;2023-03-04T04:20:11;17.88;;;3.72;;
49366;SDS011;35245;52.026;8.540;2023-03-04T04:22:38;19.20;;;4.10;;
49366;SDS011;35245;52.026;8.540;2023-03-04T04:25:05;18.58;;;3.65;;
49366;SDS011;35245;52.026;8.540;2023-03-04T04:27:36;16.50;;;3.13;;
49366;SDS011;35245;52.026;8.540;2023-03-04T04:30:03;24.35;;;3.80;;
49366;SDS011;35245;52.026;8.540;2023-03-04T04:32:31;18.92;;;3.08;;
49366;SDS011;35245;52.026;8.540;2023-03-04T04:34:58;15.70;;;3.90;;
49366;SDS011;35245;52.026;8.540;2023-03-04T04:37:24;16.05;;;3.42;;
49366;SDS011;35245;52.026;8.540;2023-03-04T04:39:51;12.98;;;2.53;;
49366;SDS011;35245;52.026;8.540;2023-03-04T04:42:19;13.82;;;2.25;;
49366;SDS011;35245;52.026;8.540;2023-03-04T04:44:47;18.70;;;3.67;;
49366;SDS011;35245;52.026;8.540;2023-03-04T04:47:15;15.70;;;3.50;;
49366;SDS011;35245;52.026;8.540;2023-03-04T04:49:42;14.90;;;3.10;;
49366;SDS011;35245;52.026;8.540;2023-03-04T04:52:09;11.98;;;3.17;;
49366;SDS011;35245;52.026;8.540;2023-03-04T04:54:36;14.90;;;3.13;;
49366;SDS011;35245;52.026;8.540;2023-03-04T04:57:03;13.10;;;3.50;;
49366;SDS011;35245;52.026;8.540;2023-03-04T04:59:33;18.35;;;4.05;;
49366;SDS011;35245;52.026;8.540;2023-03-04T05:02:01;15.40;;;3.60;;
49366;SDS011;35245;52.026;8.540;2023-03-04T05:04:28;15.73;;;3.45;;
49366;SDS011;35245;52.026;8.540;2023-03-04T05:06:55;15.05;;;2.72;;
49366;SDS011;35245;52.026;8.540;2023-03-04T05:09:22;15.43;;;3.15;;
49366;SDS011;35245;52.026;8.540;2023-03-04T05:11:49;15.20;;;2.63;;
49366;SDS011;35245;52.026;8.540;2023-03-04T05:14:16;11.15;;;2.30;;
49366;SDS011;35245;52.026;8.540;2023-03-04T05:16:43;12.48;;;3.20;;
49366;SDS011;35245;52.026;8.540;2023-03-04T05:19:12;17.80;;;3.65;;
49366;SDS011;35245;52.026;8.540;2023-03-04T05:21:38;13.77;;;3.10;;
49366;SDS011;35245;52.026;8.540;2023-03-04T05:24:05;14.18;;;2.78;;
49366;SDS011;35245;52.026;8.540;2023-03-04T05:26:32;13.02;;;2.90;;
49366;SDS011;35245;52.026;8.540;2023-03-04T05:28:59;15.93;;;2.88;;
49366;SDS011;35245;52.026;8.540;2023-03-04T05:31:26;15.40;;;2.53;;
49366;SDS011;35245;52.026;8.540;2023-03-04T05:33:53;16.80;;;3.70;;
49366;SDS011;35245;52.026;8.540;2023-03-04T05:36:22;18.95;;;2.78;;
49366;SDS011;35245;52.026;8.540;2023-03-04T05:38:49;17.98;;;3.75;;
49366;SDS011;35245;52.026;8.540;2023-03-04T05:41:16;14.10;;;2.65;;
49366;SDS011;35245;52.026;8.540;2023-03-04T05:43:46;9.55;;;2.42;;
49366;SDS011;35245;52.026;8.540;2023-03-04T05:46:14;16.92;;;3.20;;
49366;SDS011;35245;52.026;8.540;2023-03-04T05:48:42;13.82;;;2.75;;
49366;SDS011;35245;52.026;8.540;2023-03-04T05:51:09;17.15;;;2.83;;
49366;SDS011;35245;52.026;8.540;2023-03-04T05:53:37;11.02;;;2.70;;
49366;SDS011;35245;52.026;8.540;2023-03-04T05:56:06;12.88;;;2.35;;
49366;SDS011;35245;52.026;8.540;2023-03-04T05:58:33;16.05;;;2.28;;
49366;SDS011;35245;52.026;8.540;2023-03-04T06:01:00;10.45;;;2.60;;
49366;SDS011;35245;52.026;8.540;2023-03-04T06:03:27;14.88;;;3.10;;
49366;SDS011;35245;52.026;8.540;2023-03-04T06:05:54;14.55;;;3.72;;
49366;SDS011;35245;52.026;8.540;2023-03-04T06:08:21;11.75;;;3.60;;
49366;SDS011;35245;52.026;8.540;2023-03-04T06:10:50;16.15;;;3.20;;
49366;SDS011;35245;52.026;8.540;2023-03-04T06:13:18;13.23;;;2.80;;
49366;SDS011;35245;52.026;8.540;2023-03-04T06:15:45;11.40;;;2.78;;
49366;SDS011;35245;52.026;8.540;2023-03-04T06:18:12;10.90;;;2.30;;
49366;SDS011;35245;52.026;8.540;2023-03-04T06:20:39;12.57;;;2.97;;
49366;SDS011;35245;52.026;8.540;2023-03-04T06:23:09;13.02;;;3.00;;
49366;SDS011;35245;52.026;8.540;2023-03-04T06:25:36;13.98;;;2.90;;
49366;SDS011;35245;52.026;8.540;2023-03-04T06:28:04;10.75;;;2.72;;
49366;SDS011;35245;52.026;8.540;2023-03-04T06:30:31;12.60;;;2.28;;
49366;SDS011;35245;52.026;8.540;2023-03-04T06:32:58;8.13;;;1.95;;
49366;SDS011;35245;52.026;8.540;2023-03-04T06:35:25;13.73;;;2.85;;
49366;SDS011;35245;52.026;8.540;2023-03-04T06:37:52;9.35;;;1.92;;
49366;SDS011;35245;52.026;8.540;2023-03-04T06:40:19;12.27;;;2.33;;
49366;SDS011;35245;52.026;8.540;2023-03-04T06:42:46;10.60;;;2.90;;
49366;SDS011;35245;52.026;8.540;2023-03-04T06:45:14;6.03;;;1.92;;
49366;SDS011;35245;52.026;8.540;2023-03-04T06:47:41;10.05;;;2.47;;
49366;SDS011;35245;52.026;8.540;2023-03-04T06:50:09;14.02;;;2.72;;
49366;SDS011;35245;52.026;8.540;2023-03-04T06:52:37;8.48;;;2.17;;
49366;SDS011;35245;52.026;8.540;2023-03-04T06:55:04;8.45;;;2.67;;
49366;SDS011;35245;52.026;8.540;2023-03-04T06:57:32;9.55;;;1.85;;
49366;SDS011;35245;52.026;8.540;2023-03-04T06:59:59;13.95;;;2.40;;
49366;SDS011;35245;52.026;8.540;2023-03-04T07:02:28;11.63;;;2.78;;
49366;SDS011;35245;52.026;8.540;2023-03-04T07:04:55;8.68;;;2.03;;
49366;SDS011;35245;52.026;8.540;2023-03-04T07:07:22;14.23;;;3.17;;
49366;SDS011;35245;52.026;8.540;2023-03-04T07:09:50;17.02;;;2.42;;
49366;SDS011;35245;52.026;8.540;2023-03-04T07:12:17;11.65;;;3.00;;
49366;SDS011;35245;52.026;8.540;2023-03-04T07:14:44;10.77;;;2.78;;
49366;SDS011;35245;52.026;8.540;2023-03-04T07:17:11;14.43;;;2.80;;
49366;SDS011;35245;52.026;8.540;2023-03-04T07:19:39;14.02;;;3.47;;
49366;SDS011;35245;52.026;8.540;2023-03-04T07:22:06;10.45;;;2.70;;
49366;SDS011;35245;52.026;8.540;2023-03-04T07:24:33;12.43;;;2.90;;
49366;SDS011;35245;52.026;8.540;2023-03-04T07:27:00;10.90;;;3.20;;
49366;SDS011;35245;52.026;8.540;2023-03-04T07:29:27;16.02;;;3.35;;
49366;SDS011;35245;52.026;8.540;2023-03-04T07:31:54;13.10;;;2.75;;
49366;SDS011;35245;52.026;8.540;2023-03-04T07:34:21;15.60;;;3.35;;
49366;SDS011;35245;52.026;8.540;2023-03-04T07:36:49;15.32;;;3.45;;
49366;SDS011;35245;52.026;8.540;2023-03-04T07:39:16;11.70;;;3.42;;
49366;SDS011;35245;52.026;8.540;2023-03-04T07:41:43;11.73;;;3.85;;
49366;SDS011;35245;52.026;8.540;2023-03-04T07:44:10;13.80;;;3.10;;
49366;SDS011;35245;52.026;8.540;2023-03-04T07:46:38;10.75;;;3.50;;
49366;SDS011;35245;52.026;8.540;2023-03-04T07:49:05;13.52;;;3.30;;
49366;SDS011;35245;52.026;8.540;2023-03-04T07:51:32;16.90;;;4.72;;
49366;SDS011;35245;52.026;8.540;2023-03-04T07:54:01;16.95;;;4.72;;
49366;SDS011;35245;52.026;8.540;2023-03-04T07:56:28;13.95;;;3.85;;
49366;SDS011;35245;52.026;8.540;2023-03-04T07:58:56;15.73;;;4.95;;
49366;SDS011;35245;52.026;8.540;2023-03-04T08:01:24;20.63;;;4.82;;
49366;SDS011;35245;52.026;8.540;2023-03-04T08:03:52;17.90;;;4.50;;
49366;SDS011;35245;52.026;8.540;2023-03-04T08:06:20;20.63;;;4.60;;
49366;SDS011;35245;52.026;8.540;2023-03-04T08:08:47;16.63;;;3.40;;
49366;SDS011;35245;52.026;8.540;2023-03-04T08:11:17;19.20;;;4.45;;
49366;SDS011;35245;52.026;8.540;2023-03-04T08:13:45;16.40;;;4.18;;
49366;SDS011;35245;52.026;8.540;2023-03-04T08:16:13;12.85;;;4.05;;
49366;SDS011;35245;52.026;8.540;2023-03-04T08:18:41;11.55;;;3.45;;
49366;SDS011;35245;52.026;8.540;2023-03-04T08:21:08;18.45;;;4.55;;
49366;SDS011;35245;52.026;8.540;2023-03-04T08:23:36;14.02;;;4.50;;
49366;SDS011;35245;52.026;8.540;2023-03-04T08:26:06;11.43;;;3.90;;
49366;SDS011;35245;52.026;8.540;2023-03-04T08:28:35;12.85;;;3.58;;
49366;SDS011;35245;52.026;8.540;2023-03-04T08:31:03;8.82;;;2.97;;
49366;SDS011;35245;52.026;8.540;2023-03-04T08:33:30;16.52;;;3.53;;
49366;SDS011;35245;52.026;8.540;2023-03-04T08:35:57;16.42;;;3.38;;
49366;SDS011;35245;52.026;8.540;2023-03-04T08:38:24;12.80;;;4.45;;
49366;SDS011;35245;52.026;8.540;2023-03-04T08:40:51;12.45;;;3.55;;
49366;SDS011;35245;52.026;8.540;2023-03-04T08:43:19;13.18;;;2.97;;
49366;SDS011;35245;52.026;8.540;2023-03-04T08:45:47;12.80;;;3.20;;
49366;SDS011;35245;52.026;8.540;2023-03-04T08:48:14;12.23;;;3.17;;
49366;SDS011;35245;52.026;8.540;2023-03-04T08:50:42;8.85;;;3.10;;
49366;SDS011;35245;52.026;8.540;2023-03-04T08:53:10;8.02;;;2.63;;
49366;SDS011;35245;52.026;8.540;2023-03-04T08:55:37;9.98;;;3.20;;
49366;SDS011;35245;52.026;8.540;2023-03-04T08:58:04;16.25;;;3.58;;
49366;SDS011;35245;52.026;8.540;2023-03-04T09:00:31;13.52;;;3.50;;
49366;SDS011;35245;52.026;8.540;2023-03-04T09:03:00;12.27;;;2.97;;
49366;SDS011;35245;52.026;8.540;2023-03-04T09:05:28;12.63;;;3.38;;
49366;SDS011;35245;52.026;8.540;2023-03-04T09:07:55;10.65;;;3.15;;
49366;SDS011;35245;52.026;8.540;2023-03-04T09:10:22;15.07;;;3.75;;
49366;SDS011;35245;52.026;8.540;2023-03-04T09:12:49;10.07;;;2.85;;
49366;SDS011;35245;52.026;8.540;2023-03-04T09:15:16;13.27;;;3.65;;
49366;SDS011;35245;52.026;8.540;2023-03-04T09:17:43;10.32;;;3.50;;
49366;SDS011;35245;52.026;8.540;2023-03-04T09:20:12;10.23;;;3.22;;
49366;SDS011;35245;52.026;8.540;2023-03-04T09:22:39;8.98;;;2.92;;
49366;SDS011;35245;52.026;8.540;2023-03-04T09:25:07;11.18;;;3.70;;
49366;SDS011;35245;52.026;8.540;2023-03-04T09:27:36;10.65;;;3.72;;
49366;SDS011;35245;52.026;8.540;2023-03-04T09:30:03;14.13;;;4.05;;
49366;SDS011;35245;52.026;8.540;2023-03-04T09:32:30;10.65;;;3.95;;
49366;SDS011;35245;52.026;8.540;2023-03-04T09:34:57;11.00;;;3.78;;
49366;SDS011;35245;52.026;8.540;2023-03-04T09:37:26;8.55;;;3.35;;
49366;SDS011;35245;52.026;8.540;2023-03-04T09:39:53;14.43;;;3.65;;
49366;SDS011;35245;52.026;8.540;2023-03-04T09:42:21;16.17;;;3.72;;
49366;SDS011;35245;52.026;8.540;2023-03-04T09:44:51;9.98;;;4.45;;
49366;SDS011;35245;52.026;8.540;2023-03-04T09:47:19;12.23;;;3.65;;
49366;SDS011;35245;52.026;8.540;2023-03-04T09:49:50;7.40;;;3.60;;
49366;SDS011;35245;52.026;8.540;2023-03-04T09:52:22;12.30;;;3.83;;
49366;SDS011;35245;52.026;8.540;2023-03-04T09:55:01;9.70;;;3.97;;
49366;SDS011;35245;52.026;8.540;2023-03-04T09:57:36;6.90;;;2.88;;
49366;SDS011;35245;52.026;8.540;2023-03-04T10:00:10;7.38;;;2.70;;
49366;SDS011;35245;52.026;8.540;2023-03-04T10:02:44;9.30;;;3.22;;
49366;SDS011;35245;52.026;8.540;2023-03-04T10:05:26;7.05;;;2.10;;
49366;SDS011;35245;52.026;8.540;2023-03-04T10:07:58;6.53;;;2.80;;
49366;SDS011;35245;52.026;8.540;2023-03-04T10:10:31;9.93;;;3.35;;
49366;SDS011;35245;52.026;8.540;2023-03-04T10:13:00;8.02;;;2.90;;
49366;SDS011;35245;52.026;8.540;2023-03-04T10:15:30;7.88;;;3.20;;
49366;SDS011;35245;52.026;8.540;2023-03-04T10:18:01;6.50;;;3.40;;
49366;SDS011;35245;52.026;8.540;2023-03-04T10:20:37;5.97;;;3.17;;
49366;SDS011;35245;52.026;8.540;2023-03-04T10:23:15;7.03;;;2.78;;
49366;SDS011;35245;52.026;8.540;2023-03-04T10:25:44;5.55;;;2.15;;
49366;SDS011;35245;52.026;8.540;2023-03-04T10:28:16;7.90;;;2.73;;
49366;SDS011;35245;52.026;8.540;2023-03-04T10:30:47;4.88;;;2.33;;
49366;SDS011;35245;52.026;8.540;2023-03-04T10:33:17;6.07;;;2.30;;
49366;SDS011;35245;52.026;8.540;2023-03-04T10:35:47;4.18;;;2.03;;
49366;SDS011;35245;52.026;8.540;2023-03-04T10:38:17;8.13;;;2.50;;
49366;SDS011;35245;52.026;8.540;2023-03-04T10:40:45;4.88;;;2.38;;
49366;SDS011;35245;52.026;8.540;2023-03-04T10:43:13;4.75;;;2.50;;
49366;SDS011;35245;52.026;8.540;2023-03-04T10:45:41;6.00;;;2.53;;
49366;SDS011;35245;52.026;8.540;2023-03-04T10:48:16;6.20;;;2.60;;
49366;SDS011;35245;52.026;8.540;2023-03-04T10:50:48;7.20;;;2.78;;
49366;SDS011;35245;52.026;8.540;2023-03-04T10:53:24;4.65;;;2.80;;
49366;SDS011;35245;52.026;8.540;2023-03-04T10:55:58;4.70;;;2.78;;
49366;SDS011;35245;52.026;8.540;2023-03-04T10:58:26;9.15;;;3.42;;
49366;SDS011;35245;52.026;8.540;2023-03-04T11:01:01;6.13;;;3.17;;
49366;SDS011;35245;52.026;8.540;2023-03-04T11:03:31;6.22;;;2.97;;
49366;SDS011;35245;52.026;8.540;2023-03-04T11:06:10;11.15;;;3.20;;
49366;SDS011;35245;52.026;8.540;2023-03-04T11:08:43;6.72;;;2.90;;
49366;SDS011;35245;52.026;8.540;2023-03-04T11:11:24;6.95;;;2.40;;
49366;SDS011;35245;52.026;8.540;2023-03-04T11:13:59;12.55;;;3.00;;
49366;SDS011;35245;52.026;8.540;2023-03-04T11:16:27;7.20;;;2.33;;
49366;SDS011;35245;52.026;8.540;2023-03-04T11:18:57;11.55;;;3.58;;
49366;SDS011;35245;52.026;8.540;2023-03-04T11:21:27;11.35;;;3.15;;
49366;SDS011;35245;52.026;8.540;2023-03-04T11:23:58;7.60;;;2.08;;
49366;SDS011;35245;52.026;8.540;2023-03-04T11:26:27;8.35;;;2.17;;
49366;SDS011;35245;52.026;8.540;2023-03-04T11:28:57;9.27;;;2.67;;
49366;SDS011;35245;52.026;8.540;2023-03-04T11:31:29;8.45;;;2.95;;
49366;SDS011;35245;52.026;8.540;2023-03-04T11:34:00;11.82;;;3.00;;
49366;SDS011;35245;52.026;8.540;2023-03-04T11:36:31;8.85;;;2.90;;
49366;SDS011;35245;52.026;8.540;2023-03-04T11:39:01;8.68;;;2.63;;
49366;SDS011;35245;52.026;8.540;2023-03-04T11:41:31;12.18;;;2.70;;
49366;SDS011;35245;52.026;8.540;2023-03-04T11:44:00;10.00;;;2.53;;
49366;SDS011;35245;52.026;8.540;2023-03-04T11:46:46;12.35;;;2.63;;
49366;SDS011;35245;52.026;8.540;2023-03-04T11:49:28;10.88;;;2.28;;
49366;SDS011;35245;52.026;8.540;2023-03-04T11:52:17;11.02;;;2.40;;
49366;SDS011;35245;52.026;8.540;2023-03-04T11:54:54;9.48;;;3.08;;
49366;SDS011;35245;52.026;8.540;2023-03-04T11:57:52;12.07;;;2.88;;
49366;SDS011;35245;52.026;8.540;2023-03-04T12:00:29;9.98;;;2.70;;
49366;SDS011;35245;52.026;8.540;2023-03-04T12:03:09;17.23;;;3.67;;
49366;SDS011;35245;52.026;8.540;2023-03-04T12:05:50;16.60;;;3.88;;
49366;SDS011;35245;52.026;8.540;2023-03-04T12:08:27;8.32;;;3.42;;
49366;SDS011;35245;52.026;8.540;2023-03-04T12:11:13;12.32;;;5.13;;
49366;SDS011;35245;52.026;8.540;2023-03-04T12:13:58;8.75;;;2.20;;
49366;SDS011;35245;52.026;8.540;2023-03-04T12:19:26;9.57;;;2.42;;
49366;SDS011;35245;52.026;8.540;2023-03-04T12:22:03;8.73;;;2.67;;
49366;SDS011;35245;52.026;8.540;2023-03-04T12:24:57;12.23;;;2.45;;
49366;SDS011;35245;52.026;8.540;2023-03-04T12:27:46;8.88;;;1.48;;
49366;SDS011;35245;52.026;8.540;2023-03-04T12:30:32;5.53;;;1.95;;
49366;SDS011;35245;52.026;8.540;2023-03-04T12:33:05;8.02;;;1.75;;
49366;SDS011;35245;52.026;8.540;2023-03-04T12:35:40;11.13;;;1.95;;
49366;SDS011;35245;52.026;8.540;2023-03-04T12:41:12;8.77;;;2.08;;
49366;SDS011;35245;52.026;8.540;2023-03-04T12:43:51;7.63;;;2.03;;
49366;SDS011;35245;52.026;8.540;2023-03-04T12:48:54;10.30;;;2.00;;
49366;SDS011;35245;52.026;8.540;2023-03-04T12:51:29;8.05;;;1.63;;
49366;SDS011;35245;52.026;8.540;2023-03-04T12:54:02;10.57;;;2.40;;
49366;SDS011;35245;52.026;8.540;2023-03-04T12:56:36;9.07;;;2.20;;
49366;SDS011;35245;52.026;8.540;2023-03-04T13:01:38;8.77;;;1.30;;
49366;SDS011;35245;52.026;8.540;2023-03-04T13:04:08;16.02;;;2.63;;
49366;SDS011;35245;52.026;8.540;2023-03-04T13:06:41;6.88;;;1.80;;
49366;SDS011;35245;52.026;8.540;2023-03-04T13:09:14;8.98;;;2.28;;
49366;SDS011;35245;52.026;8.540;2023-03-04T13:11:52;11.50;;;2.72;;
49366;SDS011;35245;52.026;8.540;2023-03-04T13:14:27;10.27;;;1.98;;
49366;SDS011;35245;52.026;8.540;2023-03-04T13:16:56;12.73;;;2.90;;
49366;SDS011;35245;52.026;8.540;2023-03-04T13:22:26;13.80;;;2.25;;
49366;SDS011;35245;52.026;8.540;2023-03-04T13:24:55;8.00;;;1.80;;
49366;SDS011;35245;52.026;8.540;2023-03-04T13:38:56;8.90;;;2.47;;
49366;SDS011;35245;52.026;8.540;2023-03-04T13:41:27;4.78;;;1.80;;
49366;SDS011;35245;52.026;8.540;2023-03-04T13:46:40;8.50;;;1.98;;
49366;SDS011;35245;52.026;8.540;2023-03-04T13:49:14;4.65;;;1.58;;
49366;SDS011;35245;52.026;8.540;2023-03-04T13:51:44;17.13;;;4.05;;
49366;SDS011;35245;52.026;8.540;2023-03-04T13:54:14;9.95;;;2.30;;
49366;SDS011;35245;52.026;8.540;2023-03-04T13:56:42;10.93;;;2.10;;
49366;SDS011;35245;52.026;8.540;2023-03-04T13:59:20;9.27;;;2.00;;
49366;SDS011;35245;52.026;8.540;2023-03-04T14:04:41;10.47;;;2.30;;
49366;SDS011;35245;52.026;8.540;2023-03-04T14:07:19;12.35;;;2.38;;
49366;SDS011;35245;52.026;8.540;2023-03-04T14:09:55;11.63;;;2.22;;
49366;SDS011;35245;52.026;8.540;2023-03-04T14:12:24;10.55;;;2.20;;
49366;SDS011;35245;52.026;8.540;2023-03-04T14:14:53;11.07;;;2.80;;
49366;SDS011;35245;52.026;8.540;2023-03-04T14:17:24;11.57;;;2.83;;
49366;SDS011;35245;52.026;8.540;2023-03-04T14:19:56;7.95;;;2.60;;
49366;SDS011;35245;52.026;8.540;2023-03-04T14:22:24;10.93;;;2.20;;
49366;SDS011;35245;52.026;8.540;2023-03-04T14:24:55;10.68;;;2.25;;
49366;SDS011;35245;52.026;8.540;2023-03-04T14:27:23;8.80;;;2.00;;
49366;SDS011;35245;52.026;8.540;2023-03-04T14:29:54;11.63;;;2.25;;
49366;SDS011;35245;52.026;8.540;2023-03-04T14:32:23;14.02;;;2.70;;
49366;SDS011;35245;52.026;8.540;2023-03-04T14:34:55;10.00;;;2.28;;
49366;SDS011;35245;52.026;8.540;2023-03-04T14:37:25;10.40;;;2.97;;
49366;SDS011;35245;52.026;8.540;2023-03-04T14:39:53;10.77;;;2.00;;
49366;SDS011;35245;52.026;8.540;2023-03-04T14:42:22;8.30;;;2.10;;
49366;SDS011;35245;52.026;8.540;2023-03-04T14:44:51;7.50;;;2.10;;
49366;SDS011;35245;52.026;8.540;2023-03-04T14:47:22;7.88;;;2.28;;
49366;SDS011;35245;52.026;8.540;2023-03-04T14:49:59;14.77;;;4.57;;
49366;SDS011;35245;52.026;8.540;2023-03-04T14:52:30;8.82;;;2.05;;
49366;SDS011;35245;52.026;8.540;2023-03-04T14:55:00;10.57;;;3.20;;
49366;SDS011;35245;52.026;8.540;2023-03-04T14:57:30;19.25;;;8.63;;
49366;SDS011;35245;52.026;8.540;2023-03-04T15:00:12;8.65;;;3.58;;
49366;SDS011;35245;52.026;8.540;2023-03-04T15:02:50;10.50;;;3.15;;
49366;SDS011;35245;52.026;8.540;2023-03-04T15:05:19;9.75;;;2.80;;
49366;SDS011;35245;52.026;8.540;2023-03-04T15:07:50;12.27;;;2.50;;
49366;SDS011;35245;52.026;8.540;2023-03-04T15:10:20;13.00;;;2.72;;
49366;SDS011;35245;52.026;8.540;2023-03-04T15:12:51;10.48;;;3.00;;
49366;SDS011;35245;52.026;8.540;2023-03-04T15:15:31;9.93;;;2.78;;
49366;SDS011;35245;52.026;8.540;2023-03-04T15:18:01;13.20;;;2.88;;
49366;SDS011;35245;52.026;8.540;2023-03-04T15:20:30;13.90;;;2.78;;
49366;SDS011;35245;52.026;8.540;2023-03-04T15:23:04;14.25;;;2.83;;